sensor_id;sensor_type;location;lat;lon;timestamp;P1;durP1;ratioP1;P2;durP2;ratioP2
2289;SDS011;1153;47.986;7.898;2022-09-25T00:00:27;3.10;;;2.90;;
2289;SDS011;1153;47.986;7.898;2022-09-25T00:02:52;10.00;;;2.00;;
2289;SDS011;1153;47.986;7.898;2022-09-25T00:05:17;2.93;;;2.73;;
2289;SDS011;1153;47.986;7.898;2022-09-25T00:07:42;2.93;;;2.47;;
2289;SDS011;1153;47.986;7.898;2022-09-25T00:10:07;2.67;;;2.40;;
2289;SDS011;1153;47.986;7.898;2022-09-25T00:12:33;2.63;;;2.43;;
2289;SDS011;1153;47.986;7.898;2022-09-25T00:14:59;3.00;;;2.80;;
2289;SDS011;1153;47.986;7.898;2022-09-25T00:17:25;4.20;;;3.40;;
2289;SDS011;1153;47.986;7.898;2022-09-25T00:19:50;2.03;;;1.93;;
2289;SDS011;1153;47.986;7.898;2022-09-25T00:22:16;2.03;;;1.80;;
2289;SDS011;1153;47.986;7.898;2022-09-25T00:24:42;2.63;;;2.47;;
2289;SDS011;1153;47.986;7.898;2022-09-25T00:27:07;4.47;;;4.17;;
2289;SDS011;1153;47.986;7.898;2022-09-25T00:29:34;5.00;;;4.60;;
2289;SDS011;1153;47.986;7.898;2022-09-25T00:32:00;2.50;;;2.40;;
2289;SDS011;1153;47.986;7.898;2022-09-25T00:34:25;3.73;;;3.53;;
2289;SDS011;1153;47.986;7.898;2022-09-25T00:36:50;2.33;;;2.23;;
2289;SDS011;1153;47.986;7.898;2022-09-25T00:39:16;3.07;;;2.70;;
2289;SDS011;1153;47.986;7.898;2022-09-25T00:41:41;3.40;;;3.30;;
2289;SDS011;1153;47.986;7.898;2022-09-25T00:44:43;2.43;;;2.33;;
2289;SDS011;1153;47.986;7.898;2022-09-25T00:46:51;2.50;;;2.30;;
2289;SDS011;1153;47.986;7.898;2022-09-25T00:49:18;1.97;;;1.87;;
2289;SDS011;1153;47.986;7.898;2022-09-25T00:51:52;3.53;;;3.17;;
2289;SDS011;1153;47.986;7.898;2022-09-25T00:54:23;2.00;;;1.80;;
2289;SDS011;1153;47.986;7.898;2022-09-25T00:56:49;4.07;;;3.20;;
2289;SDS011;1153;47.986;7.898;2022-09-25T00:59:17;3.90;;;2.90;;
2289;SDS011;1153;47.986;7.898;2022-09-25T01:01:44;3.00;;;2.80;;
2289;SDS011;1153;47.986;7.898;2022-09-25T01:04:09;4.00;;;2.63;;
2289;SDS011;1153;47.986;7.898;2022-09-25T01:06:36;3.20;;;3.00;;
2289;SDS011;1153;47.986;7.898;2022-09-25T01:09:02;3.77;;;3.57;;
2289;SDS011;1153;47.986;7.898;2022-09-25T01:11:27;2.43;;;2.33;;
2289;SDS011;1153;47.986;7.898;2022-09-25T01:13:55;2.80;;;2.60;;
2289;SDS011;1153;47.986;7.898;2022-09-25T01:24:01;4.10;;;3.33;;
2289;SDS011;1153;47.986;7.898;2022-09-25T01:29:26;2.73;;;2.40;;
2289;SDS011;1153;47.986;7.898;2022-09-25T01:32:04;3.93;;;2.37;;
2289;SDS011;1153;47.986;7.898;2022-09-25T01:36:57;3.93;;;3.63;;
2289;SDS011;1153;47.986;7.898;2022-09-25T01:39:26;2.73;;;2.50;;
2289;SDS011;1153;47.986;7.898;2022-09-25T01:41:57;2.73;;;2.60;;
2289;SDS011;1153;47.986;7.898;2022-09-25T01:44:28;2.77;;;2.57;;
2289;SDS011;1153;47.986;7.898;2022-09-25T01:46:55;2.80;;;2.60;;
2289;SDS011;1153;47.986;7.898;2022-09-25T01:49:34;4.60;;;2.23;;
2289;SDS011;1153;47.986;7.898;2022-09-25T01:52:00;2.30;;;2.20;;
2289;SDS011;1153;47.986;7.898;2022-09-25T01:54:31;2.93;;;2.73;;
2289;SDS011;1153;47.986;7.898;2022-09-25T01:57:11;2.93;;;2.73;;
2289;SDS011;1153;47.986;7.898;2022-09-25T02:02:11;2.73;;;2.53;;
2289;SDS011;1153;47.986;7.898;2022-09-25T02:04:42;3.13;;;2.50;;
2289;SDS011;1153;47.986;7.898;2022-09-25T02:07:09;3.90;;;3.60;;
2289;SDS011;1153;47.986;7.898;2022-09-25T02:09:36;2.33;;;2.23;;
2289;SDS011;1153;47.986;7.898;2022-09-25T02:12:06;7.40;;;2.90;;
2289;SDS011;1153;47.986;7.898;2022-09-25T02:14:37;3.30;;;3.10;;
2289;SDS011;1153;47.986;7.898;2022-09-25T02:17:07;2.63;;;2.53;;
2289;SDS011;1153;47.986;7.898;2022-09-25T02:19:36;3.60;;;3.30;;
2289;SDS011;1153;47.986;7.898;2022-09-25T02:22:20;3.27;;;3.07;;
2289;SDS011;1153;47.986;7.898;2022-09-25T02:27:22;2.47;;;2.30;;
2289;SDS011;1153;47.986;7.898;2022-09-25T02:29:48;2.07;;;1.97;;
2289;SDS011;1153;47.986;7.898;2022-09-25T02:32:15;2.53;;;2.33;;
2289;SDS011;1153;47.986;7.898;2022-09-25T02:34:41;2.63;;;2.17;;
2289;SDS011;1153;47.986;7.898;2022-09-25T02:37:10;2.90;;;1.90;;
2289;SDS011;1153;47.986;7.898;2022-09-25T02:39:36;2.67;;;2.57;;
2289;SDS011;1153;47.986;7.898;2022-09-25T02:52:15;2.20;;;2.00;;
2289;SDS011;1153;47.986;7.898;2022-09-25T02:54:46;2.60;;;2.40;;
2289;SDS011;1153;47.986;7.898;2022-09-25T02:59:43;2.17;;;1.97;;
2289;SDS011;1153;47.986;7.898;2022-09-25T03:02:10;3.40;;;1.70;;
2289;SDS011;1153;47.986;7.898;2022-09-25T03:04:36;2.80;;;2.60;;
2289;SDS011;1153;47.986;7.898;2022-09-25T03:07:03;2.27;;;2.17;;
2289;SDS011;1153;47.986;7.898;2022-09-25T03:09:28;2.53;;;2.43;;
2289;SDS011;1153;47.986;7.898;2022-09-25T03:11:55;2.00;;;1.90;;
2289;SDS011;1153;47.986;7.898;2022-09-25T03:14:20;2.00;;;1.90;;
2289;SDS011;1153;47.986;7.898;2022-09-25T03:16:50;2.90;;;2.70;;
2289;SDS011;1153;47.986;7.898;2022-09-25T03:19:16;2.47;;;2.10;;
2289;SDS011;1153;47.986;7.898;2022-09-25T03:21:43;1.97;;;1.87;;
2289;SDS011;1153;47.986;7.898;2022-09-25T03:24:09;3.77;;;2.40;;
2289;SDS011;1153;47.986;7.898;2022-09-25T03:26:34;1.70;;;1.60;;
2289;SDS011;1153;47.986;7.898;2022-09-25T03:28:59;2.50;;;2.30;;
2289;SDS011;1153;47.986;7.898;2022-09-25T03:31:26;2.00;;;1.90;;
2289;SDS011;1153;47.986;7.898;2022-09-25T03:33:52;2.17;;;2.03;;
2289;SDS011;1153;47.986;7.898;2022-09-25T03:36:18;2.23;;;2.13;;
2289;SDS011;1153;47.986;7.898;2022-09-25T03:38:45;1.77;;;1.67;;
2289;SDS011;1153;47.986;7.898;2022-09-25T03:41:11;2.73;;;2.63;;
2289;SDS011;1153;47.986;7.898;2022-09-25T03:43:38;1.60;;;1.50;;
2289;SDS011;1153;47.986;7.898;2022-09-25T03:46:04;2.97;;;2.87;;
2289;SDS011;1153;47.986;7.898;2022-09-25T03:48:30;2.00;;;1.90;;
2289;SDS011;1153;47.986;7.898;2022-09-25T03:50:55;7.00;;;2.60;;
2289;SDS011;1153;47.986;7.898;2022-09-25T03:53:21;2.37;;;2.17;;
2289;SDS011;1153;47.986;7.898;2022-09-25T03:55:46;2.90;;;2.70;;
2289;SDS011;1153;47.986;7.898;2022-09-25T03:58:13;1.80;;;1.70;;
2289;SDS011;1153;47.986;7.898;2022-09-25T04:00:39;3.07;;;2.70;;
2289;SDS011;1153;47.986;7.898;2022-09-25T04:03:04;2.13;;;2.03;;
2289;SDS011;1153;47.986;7.898;2022-09-25T04:05:29;3.30;;;2.07;;
2289;SDS011;1153;47.986;7.898;2022-09-25T04:07:54;2.63;;;2.43;;
2289;SDS011;1153;47.986;7.898;2022-09-25T04:10:20;2.30;;;2.20;;
2289;SDS011;1153;47.986;7.898;2022-09-25T04:12:45;2.80;;;2.67;;
2289;SDS011;1153;47.986;7.898;2022-09-25T04:15:10;2.13;;;2.03;;
2289;SDS011;1153;47.986;7.898;2022-09-25T04:17:35;2.03;;;1.93;;
2289;SDS011;1153;47.986;7.898;2022-09-25T04:20:00;2.20;;;2.10;;
2289;SDS011;1153;47.986;7.898;2022-09-25T04:22:26;10.07;;;2.20;;
2289;SDS011;1153;47.986;7.898;2022-09-25T04:24:51;2.07;;;1.97;;
2289;SDS011;1153;47.986;7.898;2022-09-25T04:27:17;2.63;;;2.53;;
2289;SDS011;1153;47.986;7.898;2022-09-25T04:29:43;3.00;;;2.37;;
2289;SDS011;1153;47.986;7.898;2022-09-25T04:32:08;3.43;;;2.60;;
2289;SDS011;1153;47.986;7.898;2022-09-25T04:34:52;2.10;;;2.00;;
2289;SDS011;1153;47.986;7.898;2022-09-25T04:37:17;2.50;;;2.40;;
2289;SDS011;1153;47.986;7.898;2022-09-25T04:39:42;2.37;;;2.00;;
2289;SDS011;1153;47.986;7.898;2022-09-25T04:42:07;2.70;;;2.60;;
2289;SDS011;1153;47.986;7.898;2022-09-25T04:44:33;2.73;;;2.53;;
2289;SDS011;1153;47.986;7.898;2022-09-25T04:46:58;2.00;;;1.90;;
2289;SDS011;1153;47.986;7.898;2022-09-25T04:49:23;2.50;;;1.77;;
2289;SDS011;1153;47.986;7.898;2022-09-25T04:51:48;2.33;;;2.13;;
2289;SDS011;1153;47.986;7.898;2022-09-25T04:54:14;2.87;;;2.67;;
2289;SDS011;1153;47.986;7.898;2022-09-25T04:56:42;6.83;;;1.70;;
2289;SDS011;1153;47.986;7.898;2022-09-25T04:59:07;1.87;;;1.77;;
2289;SDS011;1153;47.986;7.898;2022-09-25T05:01:32;1.73;;;1.63;;
2289;SDS011;1153;47.986;7.898;2022-09-25T05:03:57;1.90;;;1.80;;
2289;SDS011;1153;47.986;7.898;2022-09-25T05:06:22;4.00;;;1.63;;
2289;SDS011;1153;47.986;7.898;2022-09-25T05:08:48;1.83;;;1.53;;
2289;SDS011;1153;47.986;7.898;2022-09-25T05:11:13;2.20;;;2.10;;
2289;SDS011;1153;47.986;7.898;2022-09-25T05:13:38;3.27;;;2.17;;
2289;SDS011;1153;47.986;7.898;2022-09-25T05:16:05;1.63;;;1.53;;
2289;SDS011;1153;47.986;7.898;2022-09-25T05:18:30;3.37;;;3.10;;
2289;SDS011;1153;47.986;7.898;2022-09-25T05:20:55;5.00;;;4.50;;
2289;SDS011;1153;47.986;7.898;2022-09-25T05:23:21;5.30;;;3.90;;
2289;SDS011;1153;47.986;7.898;2022-09-25T05:25:51;2.87;;;2.77;;
2289;SDS011;1153;47.986;7.898;2022-09-25T05:28:17;2.17;;;2.07;;
2289;SDS011;1153;47.986;7.898;2022-09-25T05:30:42;2.23;;;2.07;;
2289;SDS011;1153;47.986;7.898;2022-09-25T05:33:07;3.10;;;1.93;;
2289;SDS011;1153;47.986;7.898;2022-09-25T05:35:33;1.90;;;1.63;;
2289;SDS011;1153;47.986;7.898;2022-09-25T05:37:58;2.00;;;1.90;;
2289;SDS011;1153;47.986;7.898;2022-09-25T05:40:24;1.90;;;1.80;;
2289;SDS011;1153;47.986;7.898;2022-09-25T05:42:49;3.23;;;3.07;;
2289;SDS011;1153;47.986;7.898;2022-09-25T05:45:16;1.60;;;1.50;;
2289;SDS011;1153;47.986;7.898;2022-09-25T05:47:41;2.10;;;2.00;;
2289;SDS011;1153;47.986;7.898;2022-09-25T05:50:08;1.83;;;1.73;;
2289;SDS011;1153;47.986;7.898;2022-09-25T05:52:33;2.33;;;2.23;;
2289;SDS011;1153;47.986;7.898;2022-09-25T05:54:59;2.60;;;2.50;;
2289;SDS011;1153;47.986;7.898;2022-09-25T05:57:24;2.63;;;2.53;;
2289;SDS011;1153;47.986;7.898;2022-09-25T05:59:50;2.00;;;1.90;;
2289;SDS011;1153;47.986;7.898;2022-09-25T06:02:15;3.13;;;1.67;;
2289;SDS011;1153;47.986;7.898;2022-09-25T06:04:40;4.40;;;2.40;;
2289;SDS011;1153;47.986;7.898;2022-09-25T06:07:06;2.73;;;2.30;;
2289;SDS011;1153;47.986;7.898;2022-09-25T06:09:33;1.80;;;1.70;;
2289;SDS011;1153;47.986;7.898;2022-09-25T06:11:59;1.57;;;1.47;;
2289;SDS011;1153;47.986;7.898;2022-09-25T06:14:24;2.57;;;2.40;;
2289;SDS011;1153;47.986;7.898;2022-09-25T06:16:49;3.20;;;2.57;;
2289;SDS011;1153;47.986;7.898;2022-09-25T06:19:14;2.53;;;2.33;;
2289;SDS011;1153;47.986;7.898;2022-09-25T06:21:40;5.43;;;2.20;;
2289;SDS011;1153;47.986;7.898;2022-09-25T06:24:07;2.47;;;2.37;;
2289;SDS011;1153;47.986;7.898;2022-09-25T06:26:32;2.13;;;1.93;;
2289;SDS011;1153;47.986;7.898;2022-09-25T06:28:57;2.70;;;2.60;;
2289;SDS011;1153;47.986;7.898;2022-09-25T06:31:23;2.60;;;2.40;;
2289;SDS011;1153;47.986;7.898;2022-09-25T06:33:49;3.63;;;3.23;;
2289;SDS011;1153;47.986;7.898;2022-09-25T06:36:15;2.87;;;2.67;;
2289;SDS011;1153;47.986;7.898;2022-09-25T06:38:40;4.70;;;3.70;;
2289;SDS011;1153;47.986;7.898;2022-09-25T06:41:05;2.77;;;2.67;;
2289;SDS011;1153;47.986;7.898;2022-09-25T06:43:30;2.37;;;2.17;;
2289;SDS011;1153;47.986;7.898;2022-09-25T06:45:57;3.50;;;3.30;;
2289;SDS011;1153;47.986;7.898;2022-09-25T06:48:23;2.80;;;2.70;;
2289;SDS011;1153;47.986;7.898;2022-09-25T06:50:52;2.93;;;2.83;;
2289;SDS011;1153;47.986;7.898;2022-09-25T06:53:18;2.60;;;2.50;;
2289;SDS011;1153;47.986;7.898;2022-09-25T06:55:43;2.80;;;2.70;;
2289;SDS011;1153;47.986;7.898;2022-09-25T06:58:09;3.03;;;2.83;;
2289;SDS011;1153;47.986;7.898;2022-09-25T07:00:35;3.17;;;2.97;;
2289;SDS011;1153;47.986;7.898;2022-09-25T07:03:00;3.40;;;3.20;;
2289;SDS011;1153;47.986;7.898;2022-09-25T07:05:47;2.93;;;2.73;;
2289;SDS011;1153;47.986;7.898;2022-09-25T07:08:13;3.10;;;2.80;;
2289;SDS011;1153;47.986;7.898;2022-09-25T07:10:45;2.37;;;2.27;;
2289;SDS011;1153;47.986;7.898;2022-09-25T07:13:11;2.33;;;2.13;;
2289;SDS011;1153;47.986;7.898;2022-09-25T07:15:36;2.73;;;2.63;;
2289;SDS011;1153;47.986;7.898;2022-09-25T07:18:01;2.33;;;2.23;;
2289;SDS011;1153;47.986;7.898;2022-09-25T07:20:26;2.50;;;2.40;;
2289;SDS011;1153;47.986;7.898;2022-09-25T07:22:51;2.67;;;2.47;;
2289;SDS011;1153;47.986;7.898;2022-09-25T07:25:18;2.57;;;2.47;;
2289;SDS011;1153;47.986;7.898;2022-09-25T07:27:43;2.43;;;2.33;;
2289;SDS011;1153;47.986;7.898;2022-09-25T07:30:09;2.60;;;2.50;;
2289;SDS011;1153;47.986;7.898;2022-09-25T07:32:35;3.83;;;3.63;;
2289;SDS011;1153;47.986;7.898;2022-09-25T07:35:00;2.50;;;2.40;;
2289;SDS011;1153;47.986;7.898;2022-09-25T07:37:25;4.00;;;3.67;;
2289;SDS011;1153;47.986;7.898;2022-09-25T07:39:50;2.43;;;2.30;;
2289;SDS011;1153;47.986;7.898;2022-09-25T07:42:16;7.87;;;3.47;;
2289;SDS011;1153;47.986;7.898;2022-09-25T07:44:41;4.77;;;4.37;;
2289;SDS011;1153;47.986;7.898;2022-09-25T07:47:06;6.40;;;5.70;;
2289;SDS011;1153;47.986;7.898;2022-09-25T07:49:32;4.17;;;3.87;;
2289;SDS011;1153;47.986;7.898;2022-09-25T07:51:59;7.93;;;5.80;;
2289;SDS011;1153;47.986;7.898;2022-09-25T07:54:24;15.07;;;5.73;;
2289;SDS011;1153;47.986;7.898;2022-09-25T07:56:49;13.40;;;5.30;;
2289;SDS011;1153;47.986;7.898;2022-09-25T07:59:14;15.53;;;9.37;;
2289;SDS011;1153;47.986;7.898;2022-09-25T08:01:40;14.90;;;6.87;;
2289;SDS011;1153;47.986;7.898;2022-09-25T08:04:05;11.57;;;7.90;;
2289;SDS011;1153;47.986;7.898;2022-09-25T08:06:32;8.30;;;6.30;;
2289;SDS011;1153;47.986;7.898;2022-09-25T08:08:57;11.93;;;6.87;;
2289;SDS011;1153;47.986;7.898;2022-09-25T08:11:23;14.97;;;8.40;;
2289;SDS011;1153;47.986;7.898;2022-09-25T08:13:48;9.73;;;6.70;;
2289;SDS011;1153;47.986;7.898;2022-09-25T08:16:14;9.67;;;7.47;;
2289;SDS011;1153;47.986;7.898;2022-09-25T08:18:40;10.47;;;6.90;;
2289;SDS011;1153;47.986;7.898;2022-09-25T08:21:06;14.53;;;7.90;;
2289;SDS011;1153;47.986;7.898;2022-09-25T08:23:32;7.07;;;6.37;;
2289;SDS011;1153;47.986;7.898;2022-09-25T08:25:57;9.83;;;7.27;;
2289;SDS011;1153;47.986;7.898;2022-09-25T08:28:23;8.40;;;6.90;;
2289;SDS011;1153;47.986;7.898;2022-09-25T08:30:48;8.33;;;6.73;;
2289;SDS011;1153;47.986;7.898;2022-09-25T08:33:13;8.30;;;7.60;;
2289;SDS011;1153;47.986;7.898;2022-09-25T08:35:39;6.57;;;6.07;;
2289;SDS011;1153;47.986;7.898;2022-09-25T08:38:08;6.50;;;5.90;;
2289;SDS011;1153;47.986;7.898;2022-09-25T08:40:33;6.67;;;6.17;;
2289;SDS011;1153;47.986;7.898;2022-09-25T08:43:01;6.97;;;6.33;;
2289;SDS011;1153;47.986;7.898;2022-09-25T08:45:31;5.33;;;4.83;;
2289;SDS011;1153;47.986;7.898;2022-09-25T08:48:23;6.53;;;5.80;;
2289;SDS011;1153;47.986;7.898;2022-09-25T08:51:09;8.83;;;5.93;;
2289;SDS011;1153;47.986;7.898;2022-09-25T08:53:35;6.10;;;5.50;;
2289;SDS011;1153;47.986;7.898;2022-09-25T08:56:02;7.20;;;6.67;;
2289;SDS011;1153;47.986;7.898;2022-09-25T08:58:54;6.13;;;5.60;;
2289;SDS011;1153;47.986;7.898;2022-09-25T09:01:25;6.37;;;5.90;;
2289;SDS011;1153;47.986;7.898;2022-09-25T09:03:56;7.30;;;6.60;;
2289;SDS011;1153;47.986;7.898;2022-09-25T09:06:24;8.60;;;6.97;;
2289;SDS011;1153;47.986;7.898;2022-09-25T09:08:53;5.37;;;4.90;;
2289;SDS011;1153;47.986;7.898;2022-09-25T09:11:21;6.00;;;5.47;;
2289;SDS011;1153;47.986;7.898;2022-09-25T09:13:56;6.20;;;5.70;;
2289;SDS011;1153;47.986;7.898;2022-09-25T09:18:54;6.30;;;5.80;;
2289;SDS011;1153;47.986;7.898;2022-09-25T09:21:34;7.40;;;6.10;;
2289;SDS011;1153;47.986;7.898;2022-09-25T09:24:15;8.53;;;7.73;;
2289;SDS011;1153;47.986;7.898;2022-09-25T09:32:14;11.60;;;9.57;;
2289;SDS011;1153;47.986;7.898;2022-09-25T09:37:46;10.67;;;8.37;;
2289;SDS011;1153;47.986;7.898;2022-09-25T09:40:57;11.33;;;8.30;;
2289;SDS011;1153;47.986;7.898;2022-09-25T09:45:50;11.00;;;8.73;;
2289;SDS011;1153;47.986;7.898;2022-09-25T09:48:27;14.47;;;9.70;;
2289;SDS011;1153;47.986;7.898;2022-09-25T09:51:14;10.70;;;8.67;;
2289;SDS011;1153;47.986;7.898;2022-09-25T09:56:12;10.70;;;8.07;;
2289;SDS011;1153;47.986;7.898;2022-09-25T09:58:46;9.97;;;7.63;;
2289;SDS011;1153;47.986;7.898;2022-09-25T10:01:13;8.00;;;7.20;;
2289;SDS011;1153;47.986;7.898;2022-09-25T10:03:38;7.00;;;6.30;;
2289;SDS011;1153;47.986;7.898;2022-09-25T10:06:07;7.67;;;6.97;;
2289;SDS011;1153;47.986;7.898;2022-09-25T10:08:33;8.97;;;6.67;;
2289;SDS011;1153;47.986;7.898;2022-09-25T10:10:59;7.30;;;5.83;;
2289;SDS011;1153;47.986;7.898;2022-09-25T10:13:26;7.10;;;6.40;;
2289;SDS011;1153;47.986;7.898;2022-09-25T10:15:58;5.87;;;5.30;;
2289;SDS011;1153;47.986;7.898;2022-09-25T10:18:26;4.60;;;4.20;;
2289;SDS011;1153;47.986;7.898;2022-09-25T10:20:59;6.53;;;5.93;;
2289;SDS011;1153;47.986;7.898;2022-09-25T10:23:30;5.37;;;3.83;;
2289;SDS011;1153;47.986;7.898;2022-09-25T10:25:57;6.40;;;5.90;;
2289;SDS011;1153;47.986;7.898;2022-09-25T10:30:51;5.30;;;4.80;;
2289;SDS011;1153;47.986;7.898;2022-09-25T10:33:20;4.07;;;3.70;;
2289;SDS011;1153;47.986;7.898;2022-09-25T10:35:46;5.37;;;3.97;;
2289;SDS011;1153;47.986;7.898;2022-09-25T10:41:18;6.23;;;4.23;;
2289;SDS011;1153;47.986;7.898;2022-09-25T10:43:58;3.60;;;3.40;;
2289;SDS011;1153;47.986;7.898;2022-09-25T10:46:31;3.70;;;3.50;;
2289;SDS011;1153;47.986;7.898;2022-09-25T10:49:20;3.83;;;3.47;;
2289;SDS011;1153;47.986;7.898;2022-09-25T10:52:08;4.10;;;3.80;;
2289;SDS011;1153;47.986;7.898;2022-09-25T10:54:34;5.10;;;4.07;;
2289;SDS011;1153;47.986;7.898;2022-09-25T10:57:00;5.40;;;4.90;;
2289;SDS011;1153;47.986;7.898;2022-09-25T10:59:26;4.03;;;3.80;;
2289;SDS011;1153;47.986;7.898;2022-09-25T11:01:51;3.60;;;3.30;;
2289;SDS011;1153;47.986;7.898;2022-09-25T11:06:44;3.73;;;3.40;;
2289;SDS011;1153;47.986;7.898;2022-09-25T11:09:15;4.47;;;4.17;;
2289;SDS011;1153;47.986;7.898;2022-09-25T11:11:41;3.53;;;3.23;;
2289;SDS011;1153;47.986;7.898;2022-09-25T11:14:15;4.30;;;3.23;;
2289;SDS011;1153;47.986;7.898;2022-09-25T11:16:50;3.80;;;3.50;;
2289;SDS011;1153;47.986;7.898;2022-09-25T11:19:32;4.43;;;4.20;;
2289;SDS011;1153;47.986;7.898;2022-09-25T11:30:02;3.60;;;3.30;;
2289;SDS011;1153;47.986;7.898;2022-09-25T11:35:16;2.77;;;2.43;;
2289;SDS011;1153;47.986;7.898;2022-09-25T11:46:17;3.33;;;3.03;;
2289;SDS011;1153;47.986;7.898;2022-09-25T11:51:24;3.80;;;3.37;;
2289;SDS011;1153;47.986;7.898;2022-09-25T11:54:04;6.40;;;3.70;;
2289;SDS011;1153;47.986;7.898;2022-09-25T12:01:43;5.30;;;3.63;;
2289;SDS011;1153;47.986;7.898;2022-09-25T12:22:32;4.20;;;4.00;;
2289;SDS011;1153;47.986;7.898;2022-09-25T12:35:35;6.90;;;3.60;;
2289;SDS011;1153;47.986;7.898;2022-09-25T12:38:04;3.33;;;3.13;;
2289;SDS011;1153;47.986;7.898;2022-09-25T12:40:36;2.37;;;2.17;;
2289;SDS011;1153;47.986;7.898;2022-09-25T12:43:08;4.33;;;3.43;;
2289;SDS011;1153;47.986;7.898;2022-09-25T12:45:48;2.87;;;2.77;;
2289;SDS011;1153;47.986;7.898;2022-09-25T12:50:46;2.90;;;2.70;;
2289;SDS011;1153;47.986;7.898;2022-09-25T12:53:20;3.13;;;2.83;;
2289;SDS011;1153;47.986;7.898;2022-09-25T12:55:56;3.20;;;2.90;;
2289;SDS011;1153;47.986;7.898;2022-09-25T13:01:01;1.80;;;1.70;;
2289;SDS011;1153;47.986;7.898;2022-09-25T13:06:04;2.10;;;2.00;;
2289;SDS011;1153;47.986;7.898;2022-09-25T13:08:32;2.20;;;2.10;;
2289;SDS011;1153;47.986;7.898;2022-09-25T13:11:03;2.43;;;2.33;;
2289;SDS011;1153;47.986;7.898;2022-09-25T13:13:31;3.30;;;2.23;;
2289;SDS011;1153;47.986;7.898;2022-09-25T13:16:00;2.90;;;2.70;;
2289;SDS011;1153;47.986;7.898;2022-09-25T13:18:29;2.33;;;2.23;;
2289;SDS011;1153;47.986;7.898;2022-09-25T13:20:58;2.90;;;2.70;;
2289;SDS011;1153;47.986;7.898;2022-09-25T13:23:33;3.37;;;3.17;;
2289;SDS011;1153;47.986;7.898;2022-09-25T13:26:13;4.67;;;4.10;;
2289;SDS011;1153;47.986;7.898;2022-09-25T13:28:46;2.83;;;2.63;;
2289;SDS011;1153;47.986;7.898;2022-09-25T13:31:19;2.93;;;2.73;;
2289;SDS011;1153;47.986;7.898;2022-09-25T13:38:56;4.93;;;3.67;;
2289;SDS011;1153;47.986;7.898;2022-09-25T13:41:48;4.53;;;4.23;;
2289;SDS011;1153;47.986;7.898;2022-09-25T13:47:31;4.73;;;4.10;;
2289;SDS011;1153;47.986;7.898;2022-09-25T13:55:31;4.97;;;4.63;;
2289;SDS011;1153;47.986;7.898;2022-09-25T14:00:18;5.20;;;4.90;;
2289;SDS011;1153;47.986;7.898;2022-09-25T14:02:44;5.60;;;5.20;;
2289;SDS011;1153;47.986;7.898;2022-09-25T14:05:18;4.20;;;3.90;;
2289;SDS011;1153;47.986;7.898;2022-09-25T14:07:45;5.67;;;5.27;;
2289;SDS011;1153;47.986;7.898;2022-09-25T14:10:11;5.70;;;5.30;;
2289;SDS011;1153;47.986;7.898;2022-09-25T14:12:43;6.17;;;5.77;;
2289;SDS011;1153;47.986;7.898;2022-09-25T14:15:20;6.07;;;5.67;;
2289;SDS011;1153;47.986;7.898;2022-09-25T14:17:47;5.20;;;4.90;;
2289;SDS011;1153;47.986;7.898;2022-09-25T14:20:20;5.10;;;4.80;;
2289;SDS011;1153;47.986;7.898;2022-09-25T14:22:51;5.27;;;4.83;;
2289;SDS011;1153;47.986;7.898;2022-09-25T14:27:58;5.87;;;5.43;;
2289;SDS011;1153;47.986;7.898;2022-09-25T14:30:23;5.60;;;5.03;;
2289;SDS011;1153;47.986;7.898;2022-09-25T14:48:19;5.10;;;4.50;;
2289;SDS011;1153;47.986;7.898;2022-09-25T14:50:52;8.33;;;4.90;;
2289;SDS011;1153;47.986;7.898;2022-09-25T14:53:27;4.30;;;4.10;;
2289;SDS011;1153;47.986;7.898;2022-09-25T14:55:53;5.40;;;4.90;;
2289;SDS011;1153;47.986;7.898;2022-09-25T14:58:20;4.40;;;4.00;;
2289;SDS011;1153;47.986;7.898;2022-09-25T15:00:48;3.60;;;3.40;;
2289;SDS011;1153;47.986;7.898;2022-09-25T15:03:14;6.57;;;4.87;;
2289;SDS011;1153;47.986;7.898;2022-09-25T15:05:46;5.07;;;4.60;;
2289;SDS011;1153;47.986;7.898;2022-09-25T15:08:22;5.70;;;5.30;;
2289;SDS011;1153;47.986;7.898;2022-09-25T15:10:47;9.10;;;3.90;;
2289;SDS011;1153;47.986;7.898;2022-09-25T15:13:14;5.67;;;3.57;;
2289;SDS011;1153;47.986;7.898;2022-09-25T15:15:40;2.80;;;2.60;;
2289;SDS011;1153;47.986;7.898;2022-09-25T15:18:25;2.27;;;2.07;;
2289;SDS011;1153;47.986;7.898;2022-09-25T15:20:52;2.90;;;2.80;;
2289;SDS011;1153;47.986;7.898;2022-09-25T15:23:17;2.50;;;2.40;;
2289;SDS011;1153;47.986;7.898;2022-09-25T15:25:46;2.50;;;2.30;;
2289;SDS011;1153;47.986;7.898;2022-09-25T15:28:17;1.80;;;1.70;;
2289;SDS011;1153;47.986;7.898;2022-09-25T15:30:43;2.00;;;1.90;;
2289;SDS011;1153;47.986;7.898;2022-09-25T15:33:25;1.40;;;1.30;;
2289;SDS011;1153;47.986;7.898;2022-09-25T15:35:57;1.50;;;1.40;;
2289;SDS011;1153;47.986;7.898;2022-09-25T15:38:33;1.47;;;1.37;;
2289;SDS011;1153;47.986;7.898;2022-09-25T15:40:59;2.40;;;2.30;;
2289;SDS011;1153;47.986;7.898;2022-09-25T15:43:24;2.80;;;2.70;;
2289;SDS011;1153;47.986;7.898;2022-09-25T15:48:28;2.83;;;2.73;;
2289;SDS011;1153;47.986;7.898;2022-09-25T15:50:56;3.07;;;2.87;;
2289;SDS011;1153;47.986;7.898;2022-09-25T15:55:48;6.17;;;2.00;;
2289;SDS011;1153;47.986;7.898;2022-09-25T15:58:14;1.53;;;1.43;;
2289;SDS011;1153;47.986;7.898;2022-09-25T16:00:52;4.40;;;2.20;;
2289;SDS011;1153;47.986;7.898;2022-09-25T16:03:38;3.07;;;1.87;;
2289;SDS011;1153;47.986;7.898;2022-09-25T16:06:26;2.20;;;2.10;;
2289;SDS011;1153;47.986;7.898;2022-09-25T16:09:06;3.27;;;1.77;;
2289;SDS011;1153;47.986;7.898;2022-09-25T16:11:31;3.90;;;1.93;;
2289;SDS011;1153;47.986;7.898;2022-09-25T16:14:39;2.83;;;2.60;;
2289;SDS011;1153;47.986;7.898;2022-09-25T16:16:47;2.87;;;2.67;;
2289;SDS011;1153;47.986;7.898;2022-09-25T16:21:45;2.07;;;1.93;;
2289;SDS011;1153;47.986;7.898;2022-09-25T16:24:15;4.70;;;2.50;;
2289;SDS011;1153;47.986;7.898;2022-09-25T16:26:42;2.00;;;1.90;;
2289;SDS011;1153;47.986;7.898;2022-09-25T16:31:36;2.13;;;2.03;;
2289;SDS011;1153;47.986;7.898;2022-09-25T16:34:02;3.73;;;2.53;;
2289;SDS011;1153;47.986;7.898;2022-09-25T16:36:36;2.40;;;2.20;;
2289;SDS011;1153;47.986;7.898;2022-09-25T16:41:31;3.13;;;2.97;;
2289;SDS011;1153;47.986;7.898;2022-09-25T16:44:05;2.33;;;2.17;;
2289;SDS011;1153;47.986;7.898;2022-09-25T16:46:38;4.43;;;3.10;;
2289;SDS011;1153;47.986;7.898;2022-09-25T16:49:05;4.00;;;3.80;;
2289;SDS011;1153;47.986;7.898;2022-09-25T16:51:30;2.80;;;2.70;;
2289;SDS011;1153;47.986;7.898;2022-09-25T16:53:59;3.13;;;2.93;;
2289;SDS011;1153;47.986;7.898;2022-09-25T16:56:26;3.50;;;3.30;;
2289;SDS011;1153;47.986;7.898;2022-09-25T16:58:51;6.83;;;4.27;;
2289;SDS011;1153;47.986;7.898;2022-09-25T17:01:17;6.53;;;3.50;;
2289;SDS011;1153;47.986;7.898;2022-09-25T17:03:42;4.83;;;4.53;;
2289;SDS011;1153;47.986;7.898;2022-09-25T17:06:32;4.30;;;4.10;;
2289;SDS011;1153;47.986;7.898;2022-09-25T17:09:04;3.53;;;3.33;;
2289;SDS011;1153;47.986;7.898;2022-09-25T17:11:30;3.77;;;3.57;;
2289;SDS011;1153;47.986;7.898;2022-09-25T17:13:55;2.83;;;2.63;;
2289;SDS011;1153;47.986;7.898;2022-09-25T17:16:20;2.80;;;2.70;;
2289;SDS011;1153;47.986;7.898;2022-09-25T17:18:46;2.33;;;2.23;;
2289;SDS011;1153;47.986;7.898;2022-09-25T17:21:13;3.10;;;2.90;;
2289;SDS011;1153;47.986;7.898;2022-09-25T17:23:39;3.30;;;3.10;;
2289;SDS011;1153;47.986;7.898;2022-09-25T17:26:25;3.60;;;3.40;;
2289;SDS011;1153;47.986;7.898;2022-09-25T17:28:49;3.30;;;3.10;;
2289;SDS011;1153;47.986;7.898;2022-09-25T17:31:16;4.10;;;3.73;;
2289;SDS011;1153;47.986;7.898;2022-09-25T17:33:44;3.20;;;3.00;;
2289;SDS011;1153;47.986;7.898;2022-09-25T17:36:09;2.50;;;2.40;;
2289;SDS011;1153;47.986;7.898;2022-09-25T17:38:35;4.57;;;3.67;;
2289;SDS011;1153;47.986;7.898;2022-09-25T17:41:01;4.00;;;3.80;;
2289;SDS011;1153;47.986;7.898;2022-09-25T17:43:27;2.97;;;2.80;;
2289;SDS011;1153;47.986;7.898;2022-09-25T17:45:53;3.23;;;3.03;;
2289;SDS011;1153;47.986;7.898;2022-09-25T17:48:20;3.17;;;2.97;;
2289;SDS011;1153;47.986;7.898;2022-09-25T17:50:52;2.50;;;2.30;;
2289;SDS011;1153;47.986;7.898;2022-09-25T17:53:18;2.43;;;2.33;;
2289;SDS011;1153;47.986;7.898;2022-09-25T17:55:44;3.37;;;1.30;;
2289;SDS011;1153;47.986;7.898;2022-09-25T17:58:11;2.67;;;2.57;;
2289;SDS011;1153;47.986;7.898;2022-09-25T18:00:36;2.03;;;1.93;;
2289;SDS011;1153;47.986;7.898;2022-09-25T18:03:02;2.03;;;1.93;;
2289;SDS011;1153;47.986;7.898;2022-09-25T18:05:27;1.97;;;1.87;;
2289;SDS011;1153;47.986;7.898;2022-09-25T18:07:53;1.97;;;1.63;;